メインページ
METAR-TAF:

METAR-TAF

空港 :

バミューダ国際空港

バミューダ諸島, バミューダ諸島

緯度: 32-22N, 経度: 064-41W, 海抜: 6m

現時点の気象観測

当レポートは1時間0分前の02:55(UTC)に作成
南/南西の風 4kt
気温 23°C
湿度 78%
気圧 1024 hPa
視程10km以上
高度2500ftの雲はほとんどない
高度30000ftの雲は散在している

METAR: TXKF 220255Z 21004KT 9999 FEW025 SCT300 23/19 Q1024

時間: 00:55 (03:55 UTC)

予報

当レポートは4時間25分前の23:30(UTC)に作成
予報は22日の 00時(UTC)から 22日の 24時(UTC)まで有効
南/南西の風 7kt
視程10km以上
高度2000ftの雲はほとんどない
高度30000ftの千切れ雲あり

TAF: TXKF 212330Z 2200/2224 21007KT 9999 FEW020 BKN300

4,000以上の空港の気象観測と天気予報(METAR報とTAF報)

利用可能な観測所は地図上に黄色い丸と赤い丸で示す。

丸の上にカーソルを重ねると観測所名を参照できる。

次にクリックすると気象観測と天気予報を参照できる。

マップの切り替え:黒色「×」印の緑ボタンをクリックして拡大、「-」印の緑ボタンをクリックして縮小、緑色の三角印をクリックして隣りの地図に切り替え


METAR-TAF: